sensor_id;sensor_type;location;lat;lon;timestamp;P1;durP1;ratioP1;P2;durP2;ratioP2
22768;SDS011;13001;51.968;5.918;2022-07-23T00:01:09;638.10;;;580.95;;
22768;SDS011;13001;51.968;5.918;2022-07-23T00:03:36;636.02;;;579.42;;
22768;SDS011;13001;51.968;5.918;2022-07-23T00:06:03;640.42;;;585.00;;
22768;SDS011;13001;51.968;5.918;2022-07-23T00:08:30;632.42;;;579.77;;
22768;SDS011;13001;51.968;5.918;2022-07-23T00:10:58;613.55;;;562.83;;
22768;SDS011;13001;51.968;5.918;2022-07-23T00:13:27;649.50;;;596.67;;
22768;SDS011;13001;51.968;5.918;2022-07-23T00:15:54;675.70;;;620.25;;
22768;SDS011;13001;51.968;5.918;2022-07-23T00:18:21;690.00;;;633.42;;
22768;SDS011;13001;51.968;5.918;2022-07-23T00:20:49;702.83;;;643.55;;
22768;SDS011;13001;51.968;5.918;2022-07-23T00:23:17;672.55;;;615.52;;
22768;SDS011;13001;51.968;5.918;2022-07-23T00:25:44;737.55;;;672.87;;
22768;SDS011;13001;51.968;5.918;2022-07-23T00:28:12;703.40;;;642.75;;
22768;SDS011;13001;51.968;5.918;2022-07-23T00:30:39;721.80;;;658.27;;
22768;SDS011;13001;51.968;5.918;2022-07-23T00:33:07;709.52;;;646.83;;
22768;SDS011;13001;51.968;5.918;2022-07-23T00:35:36;705.58;;;643.95;;
22768;SDS011;13001;51.968;5.918;2022-07-23T00:38:04;698.33;;;637.45;;
22768;SDS011;13001;51.968;5.918;2022-07-23T00:40:31;705.90;;;645.20;;
22768;SDS011;13001;51.968;5.918;2022-07-23T00:42:58;700.70;;;641.15;;
22768;SDS011;13001;51.968;5.918;2022-07-23T00:45:26;709.08;;;648.13;;
22768;SDS011;13001;51.968;5.918;2022-07-23T00:47:54;716.20;;;654.05;;
22768;SDS011;13001;51.968;5.918;2022-07-23T00:50:21;700.87;;;640.83;;
22768;SDS011;13001;51.968;5.918;2022-07-23T00:52:48;692.00;;;633.23;;
22768;SDS011;13001;51.968;5.918;2022-07-23T00:55:15;681.08;;;623.00;;
22768;SDS011;13001;51.968;5.918;2022-07-23T00:57:43;687.85;;;629.27;;
22768;SDS011;13001;51.968;5.918;2022-07-23T01:00:11;662.52;;;606.50;;
22768;SDS011;13001;51.968;5.918;2022-07-23T01:02:39;655.98;;;600.83;;
22768;SDS011;13001;51.968;5.918;2022-07-23T01:05:07;659.95;;;604.58;;
22768;SDS011;13001;51.968;5.918;2022-07-23T01:07:35;675.83;;;618.60;;
22768;SDS011;13001;51.968;5.918;2022-07-23T01:10:03;677.95;;;619.97;;
22768;SDS011;13001;51.968;5.918;2022-07-23T01:12:31;681.63;;;624.23;;
22768;SDS011;13001;51.968;5.918;2022-07-23T01:14:58;701.42;;;642.10;;
22768;SDS011;13001;51.968;5.918;2022-07-23T01:17:26;718.27;;;657.53;;
22768;SDS011;13001;51.968;5.918;2022-07-23T01:19:54;708.38;;;648.30;;
22768;SDS011;13001;51.968;5.918;2022-07-23T01:22:21;703.33;;;643.92;;
22768;SDS011;13001;51.968;5.918;2022-07-23T01:24:48;705.75;;;645.73;;
22768;SDS011;13001;51.968;5.918;2022-07-23T01:27:16;717.27;;;657.05;;
22768;SDS011;13001;51.968;5.918;2022-07-23T01:29:45;704.98;;;645.45;;
22768;SDS011;13001;51.968;5.918;2022-07-23T01:32:12;724.00;;;663.40;;
22768;SDS011;13001;51.968;5.918;2022-07-23T01:34:39;700.00;;;641.08;;
22768;SDS011;13001;51.968;5.918;2022-07-23T01:37:07;696.60;;;638.33;;
22768;SDS011;13001;51.968;5.918;2022-07-23T01:39:34;710.25;;;651.30;;
22768;SDS011;13001;51.968;5.918;2022-07-23T01:42:02;728.25;;;667.30;;
22768;SDS011;13001;51.968;5.918;2022-07-23T01:44:29;727.60;;;667.10;;
22768;SDS011;13001;51.968;5.918;2022-07-23T01:46:56;729.35;;;668.48;;
22768;SDS011;13001;51.968;5.918;2022-07-23T01:49:24;728.23;;;667.05;;
22768;SDS011;13001;51.968;5.918;2022-07-23T01:51:51;727.75;;;667.72;;
22768;SDS011;13001;51.968;5.918;2022-07-23T01:54:28;719.47;;;659.83;;
22768;SDS011;13001;51.968;5.918;2022-07-23T01:56:56;719.17;;;659.73;;
22768;SDS011;13001;51.968;5.918;2022-07-23T01:59:23;736.47;;;674.88;;
22768;SDS011;13001;51.968;5.918;2022-07-23T02:01:50;744.58;;;682.65;;
22768;SDS011;13001;51.968;5.918;2022-07-23T02:04:18;721.60;;;661.70;;
22768;SDS011;13001;51.968;5.918;2022-07-23T02:06:46;702.83;;;644.05;;
22768;SDS011;13001;51.968;5.918;2022-07-23T02:09:13;709.47;;;649.83;;
22768;SDS011;13001;51.968;5.918;2022-07-23T02:11:40;723.17;;;662.98;;
22768;SDS011;13001;51.968;5.918;2022-07-23T02:14:08;750.22;;;687.48;;
22768;SDS011;13001;51.968;5.918;2022-07-23T02:16:35;748.02;;;685.30;;
22768;SDS011;13001;51.968;5.918;2022-07-23T02:19:03;745.23;;;683.27;;
22768;SDS011;13001;51.968;5.918;2022-07-23T02:21:30;737.72;;;676.00;;
22768;SDS011;13001;51.968;5.918;2022-07-23T02:23:57;736.17;;;674.67;;
22768;SDS011;13001;51.968;5.918;2022-07-23T02:26:25;739.05;;;678.23;;
22768;SDS011;13001;51.968;5.918;2022-07-23T02:28:52;745.27;;;683.37;;
22768;SDS011;13001;51.968;5.918;2022-07-23T02:31:19;718.92;;;659.80;;
22768;SDS011;13001;51.968;5.918;2022-07-23T02:33:47;725.98;;;666.23;;
22768;SDS011;13001;51.968;5.918;2022-07-23T02:36:14;710.60;;;651.43;;
22768;SDS011;13001;51.968;5.918;2022-07-23T02:38:41;715.28;;;656.08;;
22768;SDS011;13001;51.968;5.918;2022-07-23T02:41:09;724.50;;;664.50;;
22768;SDS011;13001;51.968;5.918;2022-07-23T02:43:36;721.67;;;662.20;;
22768;SDS011;13001;51.968;5.918;2022-07-23T02:46:03;711.47;;;651.70;;
22768;SDS011;13001;51.968;5.918;2022-07-23T02:48:30;718.27;;;658.77;;
22768;SDS011;13001;51.968;5.918;2022-07-23T02:50:58;737.40;;;675.97;;
22768;SDS011;13001;51.968;5.918;2022-07-23T02:53:25;732.52;;;671.53;;
22768;SDS011;13001;51.968;5.918;2022-07-23T02:55:52;720.80;;;660.95;;
22768;SDS011;13001;51.968;5.918;2022-07-23T02:58:20;718.27;;;658.55;;
22768;SDS011;13001;51.968;5.918;2022-07-23T03:00:47;715.17;;;654.98;;
22768;SDS011;13001;51.968;5.918;2022-07-23T03:03:15;723.97;;;663.40;;
22768;SDS011;13001;51.968;5.918;2022-07-23T03:05:43;693.63;;;635.60;;
22768;SDS011;13001;51.968;5.918;2022-07-23T03:08:10;694.20;;;636.35;;
22768;SDS011;13001;51.968;5.918;2022-07-23T03:10:37;663.95;;;609.37;;
22768;SDS011;13001;51.968;5.918;2022-07-23T03:13:04;685.40;;;628.30;;
22768;SDS011;13001;51.968;5.918;2022-07-23T03:15:32;669.88;;;614.42;;
22768;SDS011;13001;51.968;5.918;2022-07-23T03:17:59;662.00;;;607.47;;
22768;SDS011;13001;51.968;5.918;2022-07-23T03:20:27;659.65;;;605.05;;
22768;SDS011;13001;51.968;5.918;2022-07-23T03:22:54;647.63;;;594.13;;
22768;SDS011;13001;51.968;5.918;2022-07-23T03:25:21;653.15;;;599.08;;
22768;SDS011;13001;51.968;5.918;2022-07-23T03:27:48;658.72;;;604.00;;
22768;SDS011;13001;51.968;5.918;2022-07-23T03:30:16;670.95;;;616.02;;
22768;SDS011;13001;51.968;5.918;2022-07-23T03:32:43;665.03;;;610.73;;
22768;SDS011;13001;51.968;5.918;2022-07-23T03:35:10;665.02;;;611.12;;
22768;SDS011;13001;51.968;5.918;2022-07-23T03:37:40;668.65;;;614.02;;
22768;SDS011;13001;51.968;5.918;2022-07-23T03:40:07;706.37;;;648.85;;
22768;SDS011;13001;51.968;5.918;2022-07-23T03:42:36;656.70;;;602.40;;
22768;SDS011;13001;51.968;5.918;2022-07-23T03:45:04;669.58;;;613.75;;
22768;SDS011;13001;51.968;5.918;2022-07-23T03:47:31;648.10;;;594.52;;
22768;SDS011;13001;51.968;5.918;2022-07-23T03:49:58;646.03;;;593.43;;
22768;SDS011;13001;51.968;5.918;2022-07-23T03:52:26;635.97;;;584.67;;
22768;SDS011;13001;51.968;5.918;2022-07-23T03:54:53;653.40;;;600.70;;
22768;SDS011;13001;51.968;5.918;2022-07-23T03:57:20;636.25;;;585.23;;
22768;SDS011;13001;51.968;5.918;2022-07-23T03:59:48;643.40;;;591.70;;
22768;SDS011;13001;51.968;5.918;2022-07-23T04:02:15;637.85;;;586.65;;
22768;SDS011;13001;51.968;5.918;2022-07-23T04:04:42;665.33;;;611.45;;
22768;SDS011;13001;51.968;5.918;2022-07-23T04:07:09;668.90;;;615.55;;
22768;SDS011;13001;51.968;5.918;2022-07-23T04:09:37;650.87;;;598.60;;
22768;SDS011;13001;51.968;5.918;2022-07-23T04:12:06;642.95;;;590.60;;
22768;SDS011;13001;51.968;5.918;2022-07-23T04:14:34;706.73;;;645.70;;
22768;SDS011;13001;51.968;5.918;2022-07-23T04:17:01;694.30;;;635.07;;
22768;SDS011;13001;51.968;5.918;2022-07-23T04:19:29;666.62;;;609.35;;
22768;SDS011;13001;51.968;5.918;2022-07-23T04:22:01;475.47;;;440.43;;
22768;SDS011;13001;51.968;5.918;2022-07-23T04:24:29;401.98;;;371.13;;
22768;SDS011;13001;51.968;5.918;2022-07-23T04:26:56;415.92;;;382.83;;
22768;SDS011;13001;51.968;5.918;2022-07-23T04:29:24;451.33;;;415.30;;
22768;SDS011;13001;51.968;5.918;2022-07-23T04:31:51;507.62;;;467.75;;
22768;SDS011;13001;51.968;5.918;2022-07-23T04:34:18;719.60;;;660.17;;
22768;SDS011;13001;51.968;5.918;2022-07-23T04:36:45;829.90;;;765.77;;
22768;SDS011;13001;51.968;5.918;2022-07-23T04:39:13;726.42;;;674.58;;
22768;SDS011;13001;51.968;5.918;2022-07-23T04:41:40;632.38;;;587.02;;
22768;SDS011;13001;51.968;5.918;2022-07-23T04:44:07;552.83;;;512.70;;
22768;SDS011;13001;51.968;5.918;2022-07-23T04:46:35;581.52;;;541.48;;
22768;SDS011;13001;51.968;5.918;2022-07-23T04:49:02;741.45;;;687.23;;
22768;SDS011;13001;51.968;5.918;2022-07-23T04:51:29;914.40;;;837.33;;
22768;SDS011;13001;51.968;5.918;2022-07-23T04:53:56;976.30;;;892.20;;
22768;SDS011;13001;51.968;5.918;2022-07-23T04:56:24;919.30;;;846.70;;
22768;SDS011;13001;51.968;5.918;2022-07-23T04:58:51;773.00;;;715.83;;
22768;SDS011;13001;51.968;5.918;2022-07-23T05:01:18;737.33;;;683.85;;
22768;SDS011;13001;51.968;5.918;2022-07-23T05:03:45;710.37;;;659.37;;
22768;SDS011;13001;51.968;5.918;2022-07-23T05:06:14;681.60;;;632.42;;
22768;SDS011;13001;51.968;5.918;2022-07-23T05:08:42;699.35;;;642.27;;
22768;SDS011;13001;51.968;5.918;2022-07-23T05:11:09;784.10;;;715.35;;
22768;SDS011;13001;51.968;5.918;2022-07-23T05:13:37;902.77;;;820.83;;
22768;SDS011;13001;51.968;5.918;2022-07-23T05:16:04;949.10;;;862.92;;
22768;SDS011;13001;51.968;5.918;2022-07-23T05:21:24;1016.62;;;930.03;;
22768;SDS011;13001;51.968;5.918;2022-07-23T05:23:51;968.92;;;889.87;;
22768;SDS011;13001;51.968;5.918;2022-07-23T05:26:18;913.80;;;841.47;;
22768;SDS011;13001;51.968;5.918;2022-07-23T05:28:46;824.27;;;761.60;;
22768;SDS011;13001;51.968;5.918;2022-07-23T05:31:13;704.75;;;654.25;;
22768;SDS011;13001;51.968;5.918;2022-07-23T05:33:41;653.23;;;609.60;;
22768;SDS011;13001;51.968;5.918;2022-07-23T05:36:09;572.75;;;537.62;;
22768;SDS011;13001;51.968;5.918;2022-07-23T05:38:36;541.40;;;509.15;;
22768;SDS011;13001;51.968;5.918;2022-07-23T05:41:03;538.80;;;505.80;;
22768;SDS011;13001;51.968;5.918;2022-07-23T05:43:31;572.75;;;536.77;;
22768;SDS011;13001;51.968;5.918;2022-07-23T05:45:58;650.22;;;606.75;;
22768;SDS011;13001;51.968;5.918;2022-07-23T05:48:26;681.77;;;634.80;;
22768;SDS011;13001;51.968;5.918;2022-07-23T05:50:53;721.30;;;668.25;;
22768;SDS011;13001;51.968;5.918;2022-07-23T05:53:21;730.73;;;677.02;;
22768;SDS011;13001;51.968;5.918;2022-07-23T05:55:48;724.30;;;671.33;;
22768;SDS011;13001;51.968;5.918;2022-07-23T05:58:15;661.35;;;616.00;;
22768;SDS011;13001;51.968;5.918;2022-07-23T06:00:42;559.65;;;524.42;;
22768;SDS011;13001;51.968;5.918;2022-07-23T06:03:10;477.30;;;447.95;;
22768;SDS011;13001;51.968;5.918;2022-07-23T06:05:37;534.63;;;500.92;;
22768;SDS011;13001;51.968;5.918;2022-07-23T06:08:04;503.17;;;471.07;;
22768;SDS011;13001;51.968;5.918;2022-07-23T06:10:31;501.10;;;469.23;;
22768;SDS011;13001;51.968;5.918;2022-07-23T06:12:59;478.30;;;448.73;;
22768;SDS011;13001;51.968;5.918;2022-07-23T06:15:28;418.97;;;395.15;;
22768;SDS011;13001;51.968;5.918;2022-07-23T06:17:56;371.30;;;351.20;;
22768;SDS011;13001;51.968;5.918;2022-07-23T06:20:23;364.10;;;344.05;;
22768;SDS011;13001;51.968;5.918;2022-07-23T06:22:51;342.05;;;323.40;;
22768;SDS011;13001;51.968;5.918;2022-07-23T06:25:18;340.57;;;322.10;;
22768;SDS011;13001;51.968;5.918;2022-07-23T06:27:46;351.10;;;332.07;;
22768;SDS011;13001;51.968;5.918;2022-07-23T06:30:14;354.25;;;335.23;;
22768;SDS011;13001;51.968;5.918;2022-07-23T06:32:50;348.25;;;329.57;;
22768;SDS011;13001;51.968;5.918;2022-07-23T06:35:14;339.93;;;321.70;;
22768;SDS011;13001;51.968;5.918;2022-07-23T06:37:41;331.15;;;313.57;;
22768;SDS011;13001;51.968;5.918;2022-07-23T06:40:09;324.12;;;306.57;;
22768;SDS011;13001;51.968;5.918;2022-07-23T06:42:37;289.35;;;273.68;;
22768;SDS011;13001;51.968;5.918;2022-07-23T06:45:05;242.20;;;229.13;;
22768;SDS011;13001;51.968;5.918;2022-07-23T06:47:33;266.12;;;251.92;;
22768;SDS011;13001;51.968;5.918;2022-07-23T06:50:00;214.38;;;202.78;;
22768;SDS011;13001;51.968;5.918;2022-07-23T06:52:28;169.02;;;159.60;;
22768;SDS011;13001;51.968;5.918;2022-07-23T06:54:55;178.32;;;168.22;;
22768;SDS011;13001;51.968;5.918;2022-07-23T06:57:22;114.00;;;107.93;;
22768;SDS011;13001;51.968;5.918;2022-07-23T06:59:51;133.20;;;125.78;;
22768;SDS011;13001;51.968;5.918;2022-07-23T07:02:18;98.55;;;93.25;;
22768;SDS011;13001;51.968;5.918;2022-07-23T07:04:46;88.62;;;83.67;;
22768;SDS011;13001;51.968;5.918;2022-07-23T07:07:13;86.08;;;81.45;;
22768;SDS011;13001;51.968;5.918;2022-07-23T07:09:40;79.85;;;75.55;;
22768;SDS011;13001;51.968;5.918;2022-07-23T07:12:07;76.12;;;71.95;;
22768;SDS011;13001;51.968;5.918;2022-07-23T07:14:35;76.45;;;72.35;;
22768;SDS011;13001;51.968;5.918;2022-07-23T07:17:02;86.28;;;81.47;;
22768;SDS011;13001;51.968;5.918;2022-07-23T07:19:29;87.88;;;83.22;;
22768;SDS011;13001;51.968;5.918;2022-07-23T07:21:56;91.93;;;87.03;;
22768;SDS011;13001;51.968;5.918;2022-07-23T07:24:24;87.25;;;82.62;;
22768;SDS011;13001;51.968;5.918;2022-07-23T07:26:51;89.87;;;84.87;;
22768;SDS011;13001;51.968;5.918;2022-07-23T07:29:18;96.45;;;91.15;;
22768;SDS011;13001;51.968;5.918;2022-07-23T07:31:45;96.95;;;91.75;;
22768;SDS011;13001;51.968;5.918;2022-07-23T07:34:13;93.12;;;88.22;;
22768;SDS011;13001;51.968;5.918;2022-07-23T07:36:40;90.00;;;85.03;;
22768;SDS011;13001;51.968;5.918;2022-07-23T07:39:09;75.10;;;71.00;;
22768;SDS011;13001;51.968;5.918;2022-07-23T07:41:36;79.00;;;74.40;;
22768;SDS011;13001;51.968;5.918;2022-07-23T07:44:04;94.67;;;89.50;;
22768;SDS011;13001;51.968;5.918;2022-07-23T07:46:31;90.62;;;85.80;;
22768;SDS011;13001;51.968;5.918;2022-07-23T07:48:58;98.53;;;93.20;;
22768;SDS011;13001;51.968;5.918;2022-07-23T07:51:26;109.25;;;103.45;;
22768;SDS011;13001;51.968;5.918;2022-07-23T07:53:55;116.62;;;110.22;;
22768;SDS011;13001;51.968;5.918;2022-07-23T07:56:23;125.45;;;118.28;;
22768;SDS011;13001;51.968;5.918;2022-07-23T07:58:50;128.38;;;121.22;;
22768;SDS011;13001;51.968;5.918;2022-07-23T08:01:17;127.45;;;120.45;;
22768;SDS011;13001;51.968;5.918;2022-07-23T08:03:46;123.97;;;116.97;;
22768;SDS011;13001;51.968;5.918;2022-07-23T08:06:13;125.82;;;118.95;;
22768;SDS011;13001;51.968;5.918;2022-07-23T08:08:40;122.33;;;115.80;;
22768;SDS011;13001;51.968;5.918;2022-07-23T08:11:08;122.90;;;116.30;;
22768;SDS011;13001;51.968;5.918;2022-07-23T08:13:35;119.17;;;112.88;;
22768;SDS011;13001;51.968;5.918;2022-07-23T08:16:02;109.30;;;103.40;;
22768;SDS011;13001;51.968;5.918;2022-07-23T08:18:29;105.47;;;99.77;;
22768;SDS011;13001;51.968;5.918;2022-07-23T08:20:59;104.20;;;98.60;;
22768;SDS011;13001;51.968;5.918;2022-07-23T08:23:25;113.47;;;107.37;;
22768;SDS011;13001;51.968;5.918;2022-07-23T08:25:53;110.25;;;104.32;;
22768;SDS011;13001;51.968;5.918;2022-07-23T08:28:22;117.65;;;111.37;;
22768;SDS011;13001;51.968;5.918;2022-07-23T08:30:49;110.80;;;104.70;;
22768;SDS011;13001;51.968;5.918;2022-07-23T08:33:17;109.87;;;103.97;;
22768;SDS011;13001;51.968;5.918;2022-07-23T08:35:50;105.83;;;99.90;;
22768;SDS011;13001;51.968;5.918;2022-07-23T08:38:14;98.97;;;93.67;;
22768;SDS011;13001;51.968;5.918;2022-07-23T08:40:43;103.90;;;98.30;;
22768;SDS011;13001;51.968;5.918;2022-07-23T08:43:13;94.87;;;89.58;;
22768;SDS011;13001;51.968;5.918;2022-07-23T08:45:43;102.78;;;97.37;;
22768;SDS011;13001;51.968;5.918;2022-07-23T08:48:17;111.88;;;105.90;;
22768;SDS011;13001;51.968;5.918;2022-07-23T08:50:47;107.17;;;101.43;;
22768;SDS011;13001;51.968;5.918;2022-07-23T08:53:15;109.05;;;103.15;;
22768;SDS011;13001;51.968;5.918;2022-07-23T08:55:47;105.50;;;99.30;;
22768;SDS011;13001;51.968;5.918;2022-07-23T08:58:14;100.03;;;94.23;;
22768;SDS011;13001;51.968;5.918;2022-07-23T09:00:42;104.75;;;98.95;;
22768;SDS011;13001;51.968;5.918;2022-07-23T09:03:21;103.40;;;97.70;;
22768;SDS011;13001;51.968;5.918;2022-07-23T09:05:38;103.83;;;98.22;;
22768;SDS011;13001;51.968;5.918;2022-07-23T09:08:10;112.53;;;106.43;;
22768;SDS011;13001;51.968;5.918;2022-07-23T09:10:44;119.87;;;112.95;;
22768;SDS011;13001;51.968;5.918;2022-07-23T09:13:25;122.45;;;115.05;;
22768;SDS011;13001;51.968;5.918;2022-07-23T09:15:53;113.80;;;107.30;;
22768;SDS011;13001;51.968;5.918;2022-07-23T09:26:26;113.92;;;107.37;;
22768;SDS011;13001;51.968;5.918;2022-07-23T09:28:59;120.40;;;113.37;;
22768;SDS011;13001;51.968;5.918;2022-07-23T09:31:31;115.92;;;109.37;;
22768;SDS011;13001;51.968;5.918;2022-07-23T09:34:05;111.47;;;105.30;;
22768;SDS011;13001;51.968;5.918;2022-07-23T09:36:28;113.40;;;107.10;;
22768;SDS011;13001;51.968;5.918;2022-07-23T09:38:56;116.17;;;109.50;;
22768;SDS011;13001;51.968;5.918;2022-07-23T09:41:23;114.70;;;108.12;;
22768;SDS011;13001;51.968;5.918;2022-07-23T09:43:56;106.77;;;100.87;;
22768;SDS011;13001;51.968;5.918;2022-07-23T09:46:25;111.28;;;105.07;;
22768;SDS011;13001;51.968;5.918;2022-07-23T09:48:53;116.53;;;109.63;;
22768;SDS011;13001;51.968;5.918;2022-07-23T09:51:23;113.85;;;107.70;;
22768;SDS011;13001;51.968;5.918;2022-07-23T09:53:58;112.75;;;106.65;;
22768;SDS011;13001;51.968;5.918;2022-07-23T09:56:25;111.47;;;105.47;;
22768;SDS011;13001;51.968;5.918;2022-07-23T09:58:54;116.17;;;109.90;;
22768;SDS011;13001;51.968;5.918;2022-07-23T10:01:38;114.97;;;108.67;;
22768;SDS011;13001;51.968;5.918;2022-07-23T10:04:05;115.80;;;109.50;;
22768;SDS011;13001;51.968;5.918;2022-07-23T10:06:33;117.33;;;110.72;;
22768;SDS011;13001;51.968;5.918;2022-07-23T10:09:02;115.50;;;109.10;;
22768;SDS011;13001;51.968;5.918;2022-07-23T10:11:29;113.72;;;107.07;;
22768;SDS011;13001;51.968;5.918;2022-07-23T10:13:57;114.88;;;108.55;;
22768;SDS011;13001;51.968;5.918;2022-07-23T10:16:26;113.75;;;107.58;;
22768;SDS011;13001;51.968;5.918;2022-07-23T10:18:53;127.35;;;120.05;;
22768;SDS011;13001;51.968;5.918;2022-07-23T10:21:30;127.45;;;120.25;;
22768;SDS011;13001;51.968;5.918;2022-07-23T10:24:03;133.12;;;125.38;;
22768;SDS011;13001;51.968;5.918;2022-07-23T10:29:01;197.25;;;185.60;;
22768;SDS011;13001;51.968;5.918;2022-07-23T10:31:50;226.98;;;213.62;;
22768;SDS011;13001;51.968;5.918;2022-07-23T10:34:15;220.42;;;207.55;;
22768;SDS011;13001;51.968;5.918;2022-07-23T10:36:51;263.98;;;248.13;;
22768;SDS011;13001;51.968;5.918;2022-07-23T10:39:31;361.92;;;340.55;;
22768;SDS011;13001;51.968;5.918;2022-07-23T10:42:09;423.02;;;398.90;;
22768;SDS011;13001;51.968;5.918;2022-07-23T10:44:40;497.27;;;467.22;;
22768;SDS011;13001;51.968;5.918;2022-07-23T10:47:09;421.30;;;396.23;;
22768;SDS011;13001;51.968;5.918;2022-07-23T10:49:39;418.33;;;393.43;;
22768;SDS011;13001;51.968;5.918;2022-07-23T10:57:13;650.22;;;602.83;;
22768;SDS011;13001;51.968;5.918;2022-07-23T11:02:29;785.43;;;727.60;;
22768;SDS011;13001;51.968;5.918;2022-07-23T11:05:06;835.97;;;773.13;;
22768;SDS011;13001;51.968;5.918;2022-07-23T11:07:34;833.45;;;771.72;;
22768;SDS011;13001;51.968;5.918;2022-07-23T11:10:02;815.70;;;755.85;;
22768;SDS011;13001;51.968;5.918;2022-07-23T11:15:06;833.65;;;772.20;;
22768;SDS011;13001;51.968;5.918;2022-07-23T11:20:14;765.00;;;709.42;;
22768;SDS011;13001;51.968;5.918;2022-07-23T11:25:11;705.93;;;654.73;;
22768;SDS011;13001;51.968;5.918;2022-07-23T11:27:40;710.20;;;659.17;;
22768;SDS011;13001;51.968;5.918;2022-07-23T11:30:08;702.10;;;651.90;;
22768;SDS011;13001;51.968;5.918;2022-07-23T11:32:41;715.17;;;664.27;;
22768;SDS011;13001;51.968;5.918;2022-07-23T11:35:21;661.50;;;616.88;;
22768;SDS011;13001;51.968;5.918;2022-07-23T11:37:49;641.08;;;597.45;;
22768;SDS011;13001;51.968;5.918;2022-07-23T11:40:18;653.62;;;609.25;;
22768;SDS011;13001;51.968;5.918;2022-07-23T11:45:32;679.95;;;631.83;;
22768;SDS011;13001;51.968;5.918;2022-07-23T11:47:58;641.43;;;597.17;;
22768;SDS011;13001;51.968;5.918;2022-07-23T11:50:25;635.92;;;592.03;;
22768;SDS011;13001;51.968;5.918;2022-07-23T11:52:53;596.20;;;556.90;;
22768;SDS011;13001;51.968;5.918;2022-07-23T11:55:20;706.08;;;655.40;;
22768;SDS011;13001;51.968;5.918;2022-07-23T11:57:50;751.53;;;696.93;;
22768;SDS011;13001;51.968;5.918;2022-07-23T12:00:18;770.77;;;713.12;;
22768;SDS011;13001;51.968;5.918;2022-07-23T12:02:47;712.12;;;659.25;;
22768;SDS011;13001;51.968;5.918;2022-07-23T12:05:19;840.32;;;776.48;;
22768;SDS011;13001;51.968;5.918;2022-07-23T12:07:43;817.77;;;754.70;;
22768;SDS011;13001;51.968;5.918;2022-07-23T12:10:13;832.25;;;768.08;;
22768;SDS011;13001;51.968;5.918;2022-07-23T12:12:51;815.15;;;752.70;;
22768;SDS011;13001;51.968;5.918;2022-07-23T12:15:16;767.67;;;709.80;;
22768;SDS011;13001;51.968;5.918;2022-07-23T12:17:45;832.08;;;768.17;;
22768;SDS011;13001;51.968;5.918;2022-07-23T12:20:14;726.40;;;671.60;;
22768;SDS011;13001;51.968;5.918;2022-07-23T12:22:47;756.27;;;700.20;;
22768;SDS011;13001;51.968;5.918;2022-07-23T12:25:15;837.37;;;773.65;;
22768;SDS011;13001;51.968;5.918;2022-07-23T12:27:39;839.42;;;775.75;;
22768;SDS011;13001;51.968;5.918;2022-07-23T12:30:20;882.30;;;812.55;;
22768;SDS011;13001;51.968;5.918;2022-07-23T12:32:49;941.83;;;863.85;;
22768;SDS011;13001;51.968;5.918;2022-07-23T12:35:16;925.05;;;850.83;;
22768;SDS011;13001;51.968;5.918;2022-07-23T12:37:46;861.50;;;793.48;;
22768;SDS011;13001;51.968;5.918;2022-07-23T12:40:19;923.70;;;849.42;;
22768;SDS011;13001;51.968;5.918;2022-07-23T12:42:50;914.25;;;840.58;;
22768;SDS011;13001;51.968;5.918;2022-07-23T12:45:18;877.25;;;807.27;;
22768;SDS011;13001;51.968;5.918;2022-07-23T12:47:52;904.67;;;832.42;;
22768;SDS011;13001;51.968;5.918;2022-07-23T12:50:37;926.22;;;850.83;;
22768;SDS011;13001;51.968;5.918;2022-07-23T12:53:08;986.53;;;902.10;;
22768;SDS011;13001;51.968;5.918;2022-07-23T12:55:33;1007.35;;;918.62;;
22768;SDS011;13001;51.968;5.918;2022-07-23T12:58:04;1011.77;;;922.43;;
22768;SDS011;13001;51.968;5.918;2022-07-23T13:00:33;962.78;;;882.25;;
22768;SDS011;13001;51.968;5.918;2022-07-23T13:03:00;1024.68;;;929.30;;
22768;SDS011;13001;51.968;5.918;2022-07-23T13:05:28;1017.80;;;925.98;;
22768;SDS011;13001;51.968;5.918;2022-07-23T13:07:55;983.02;;;899.73;;
22768;SDS011;13001;51.968;5.918;2022-07-23T13:10:22;990.17;;;905.63;;
22768;SDS011;13001;51.968;5.918;2022-07-23T13:12:50;986.90;;;901.53;;
22768;SDS011;13001;51.968;5.918;2022-07-23T13:15:17;973.67;;;891.68;;
22768;SDS011;13001;51.968;5.918;2022-07-23T13:17:44;1005.85;;;916.17;;
22768;SDS011;13001;51.968;5.918;2022-07-23T13:20:13;997.52;;;910.67;;
22768;SDS011;13001;51.968;5.918;2022-07-23T13:22:40;984.37;;;900.83;;
22768;SDS011;13001;51.968;5.918;2022-07-23T13:25:08;992.70;;;906.78;;
22768;SDS011;13001;51.968;5.918;2022-07-23T13:27:35;998.12;;;910.00;;
22768;SDS011;13001;51.968;5.918;2022-07-23T13:30:02;1052.80;;;951.95;;
22768;SDS011;13001;51.968;5.918;2022-07-23T13:32:30;1046.30;;;945.63;;
22768;SDS011;13001;51.968;5.918;2022-07-23T13:34:57;1036.45;;;942.07;;
22768;SDS011;13001;51.968;5.918;2022-07-23T13:37:24;1018.00;;;928.70;;
22768;SDS011;13001;51.968;5.918;2022-07-23T13:39:52;1007.25;;;918.20;;
22768;SDS011;13001;51.968;5.918;2022-07-23T13:42:19;1010.83;;;922.72;;
22768;SDS011;13001;51.968;5.918;2022-07-23T13:44:47;1042.60;;;948.55;;
22768;SDS011;13001;51.968;5.918;2022-07-23T13:47:14;1021.93;;;930.72;;
22768;SDS011;13001;51.968;5.918;2022-07-23T13:49:41;1038.75;;;943.80;;
22768;SDS011;13001;51.968;5.918;2022-07-23T13:52:08;1017.80;;;929.42;;
22768;SDS011;13001;51.968;5.918;2022-07-23T13:54:36;1013.73;;;925.07;;
22768;SDS011;13001;51.968;5.918;2022-07-23T13:57:04;997.83;;;912.67;;
22768;SDS011;13001;51.968;5.918;2022-07-23T13:59:31;991.70;;;906.90;;
22768;SDS011;13001;51.968;5.918;2022-07-23T14:01:59;996.30;;;910.88;;
22768;SDS011;13001;51.968;5.918;2022-07-23T14:04:28;1012.40;;;924.50;;
22768;SDS011;13001;51.968;5.918;2022-07-23T14:06:55;1000.58;;;912.88;;
22768;SDS011;13001;51.968;5.918;2022-07-23T14:09:22;1020.20;;;930.42;;
22768;SDS011;13001;51.968;5.918;2022-07-23T14:11:49;1017.27;;;929.50;;
22768;SDS011;13001;51.968;5.918;2022-07-23T14:14:17;1025.83;;;934.67;;
22768;SDS011;13001;51.968;5.918;2022-07-23T14:16:45;1019.67;;;930.52;;
22768;SDS011;13001;51.968;5.918;2022-07-23T14:19:12;1040.75;;;947.65;;
22768;SDS011;13001;51.968;5.918;2022-07-23T14:21:39;1047.20;;;952.40;;
22768;SDS011;13001;51.968;5.918;2022-07-23T14:24:06;1025.20;;;935.10;;
22768;SDS011;13001;51.968;5.918;2022-07-23T14:26:34;1049.28;;;953.52;;
22768;SDS011;13001;51.968;5.918;2022-07-23T14:29:01;1062.60;;;965.10;;
22768;SDS011;13001;51.968;5.918;2022-07-23T14:31:28;1065.13;;;964.52;;
22768;SDS011;13001;51.968;5.918;2022-07-23T14:33:56;1041.55;;;947.93;;
22768;SDS011;13001;51.968;5.918;2022-07-23T14:36:23;1039.17;;;945.60;;